2IS1 weather

Proctor Hospital Heliport
Peoria, Illinois, United States

Public forecast

Using degrees Fahrenheit for public forecast. Weather courtesy of forecast.io.

METAR (pilot weather report)

Closest report is General Wayne A. Downing Peoria International Airport, 6.9 nm (12.7 km) SW. Retrieved 2019/06/25 12:54 UTC (11 minutes ago):

KPIA 251254Z 24008KT 10SM CLR 21/16 A2993 RMK AO2 SLP131 T02110156

TAF (pilot weather forecast)

Closest forecast is General Wayne A. Downing Peoria International Airport, 6.9 nm (12.7 km) SW. Retrieved 2019/06/25 12:22 UTC (43 minutes ago):

TAF KPIA 251120Z 2512/2612 22007KT P6SM SKC FM251500 22012KT P6SM SKC FM251700 22014G21KT P6SM FEW100 SCT250 FM260000 21009KT P6SM BKN100 PROB30 2600/2603 4SM -TSRA BKN050CB